createdAt,value
2024-01-09T18:40:10.157Z,6.28
2024-01-09T18:42:41.151Z,7.07
2024-01-09T18:45:13.416Z,7.30
2024-01-09T18:47:49.360Z,6.18
2024-01-09T18:50:20.405Z,5.88
2024-01-09T18:52:52.549Z,5.88
2024-01-09T18:55:22.731Z,5.88
2024-01-09T18:57:51.485Z,6.15
2024-01-09T19:00:20.364Z,8.07
2024-01-09T19:02:56.273Z,7.03
2024-01-09T19:08:22.537Z,7.72
2024-01-09T19:11:05.426Z,6.35
2024-01-09T19:13:39.380Z,6.63
2024-01-09T19:19:53.440Z,7.35
2024-01-09T19:22:52.894Z,7.63
2024-01-09T19:25:48.670Z,7.75
2024-01-09T19:28:21.759Z,6.83
2024-01-09T19:30:54.237Z,6.68
2024-01-09T19:33:35.497Z,6.15
2024-01-09T19:39:03.652Z,6.20
2024-01-09T19:41:44.252Z,5.78
2024-01-09T19:44:47.455Z,6.55
2024-01-09T19:47:16.158Z,7.18
2024-01-09T19:49:45.970Z,6.07
2024-01-09T19:52:23.624Z,5.95
2024-01-09T19:55:05.623Z,6.72
2024-01-09T19:57:37.494Z,6.03
2024-01-09T20:00:08.070Z,5.67
2024-01-09T20:02:40.098Z,5.45
2024-01-09T20:05:12.334Z,5.47
2024-01-09T20:07:39.493Z,5.32
2024-01-09T20:10:28.080Z,5.88
2024-01-09T20:12:55.096Z,5.97
2024-01-09T20:15:36.875Z,6.97
2024-01-09T20:18:27.938Z,7.50
2024-01-09T20:20:55.175Z,8.45
2024-01-09T20:23:22.169Z,6.82
2024-01-09T20:25:52.875Z,7.68
2024-01-09T20:28:20.317Z,7.28
2024-01-09T20:30:48.360Z,6.30
2024-01-09T20:33:15.533Z,7.03
2024-01-09T20:35:44.494Z,7.18
2024-01-09T20:38:19.636Z,7.82
2024-01-09T20:40:48.978Z,8.13
2024-01-09T20:43:17.477Z,7.32
2024-01-09T20:45:48.646Z,6.93
2024-01-09T20:48:16.371Z,6.50
2024-01-09T20:50:43.542Z,5.75
2024-01-09T20:53:14.641Z,5.38
2024-01-09T20:55:42.485Z,15.32
2024-01-09T20:58:12.139Z,4.97
2024-01-09T21:00:41.877Z,4.82
2024-01-09T21:03:09.922Z,4.03
2024-01-09T21:05:37.548Z,4.30
2024-01-09T21:08:07.387Z,4.15
2024-01-09T21:10:35.821Z,4.10
2024-01-09T21:13:03.465Z,4.20
2024-01-09T21:15:35.717Z,4.00
2024-01-09T21:18:04.839Z,3.78
2024-01-09T21:20:33.934Z,4.25
2024-01-09T21:23:03.992Z,3.97
2024-01-09T21:25:33.485Z,3.13
2024-01-09T21:28:03.577Z,3.15
2024-01-09T21:30:30.999Z,2.90
2024-01-09T21:33:00.722Z,3.05
2024-01-09T21:35:32.608Z,2.60
2024-01-09T21:38:04.605Z,3.22
2024-01-09T21:40:32.252Z,2.88
2024-01-09T21:43:03.843Z,2.53
2024-01-09T21:45:31.005Z,2.50
2024-01-09T21:47:58.149Z,3.10
2024-01-09T21:50:29.205Z,2.60
2024-01-09T21:53:03.948Z,2.60
2024-01-09T21:55:33.590Z,2.58
2024-01-09T21:58:01.120Z,2.97
2024-01-09T22:00:28.076Z,2.67
2024-01-09T22:02:55.082Z,2.53
2024-01-09T22:05:22.262Z,3.15
2024-01-09T22:07:49.717Z,3.28
2024-01-09T22:10:16.620Z,2.40
2024-01-09T22:12:43.479Z,3.28
2024-01-09T22:15:11.570Z,3.35
2024-01-09T22:17:38.670Z,3.15
2024-01-09T22:20:08.015Z,2.78
2024-01-09T22:22:36.845Z,3.00
2024-01-09T22:25:06.466Z,2.67
2024-01-09T22:27:33.896Z,3.20
2024-01-09T22:30:21.841Z,2.70
2024-01-09T22:32:49.167Z,3.00
2024-01-09T22:35:16.317Z,2.58
2024-01-09T22:37:43.762Z,2.72
2024-01-09T22:40:11.028Z,2.88
2024-01-09T22:42:39.601Z,3.10
2024-01-09T22:51:22.737Z,2.88
2024-01-09T23:15:54.593Z,3.20
2024-01-09T23:18:22.223Z,2.88
2024-01-09T23:20:49.043Z,3.25
2024-01-09T23:23:16.286Z,3.40
2024-01-09T23:25:44.592Z,2.92
2024-01-09T23:28:11.601Z,3.70
2024-01-09T23:30:41.506Z,3.40
2024-01-09T23:33:09.677Z,2.88
2024-01-09T23:35:37.819Z,3.67
2024-01-09T23:38:06.468Z,3.15
2024-01-09T23:40:35.110Z,3.10
2024-01-09T23:43:07.493Z,3.05
2024-01-09T23:45:34.749Z,2.90
2024-01-09T23:48:01.955Z,3.35
2024-01-09T23:50:30.331Z,2.90
2024-01-09T23:52:59.090Z,3.13
2024-01-09T23:55:25.909Z,3.42
2024-01-09T23:57:55.330Z,2.80
